sensor_id;sensor_type;location;lat;lon;timestamp;P1;durP1;ratioP1;P2;durP2;ratioP2
45344;SDS011;31078;48.304;11.896;2023-08-30T00:00:47;24.98;;;17.48;;
45344;SDS011;31078;48.304;11.896;2023-08-30T00:03:15;26.45;;;19.20;;
45344;SDS011;31078;48.304;11.896;2023-08-30T00:05:41;25.77;;;18.48;;
45344;SDS011;31078;48.304;11.896;2023-08-30T00:08:08;29.25;;;19.10;;
45344;SDS011;31078;48.304;11.896;2023-08-30T00:10:35;30.25;;;20.17;;
45344;SDS011;31078;48.304;11.896;2023-08-30T00:13:03;28.50;;;19.33;;
45344;SDS011;31078;48.304;11.896;2023-08-30T00:15:29;29.27;;;19.65;;
45344;SDS011;31078;48.304;11.896;2023-08-30T00:17:56;27.17;;;19.08;;
45344;SDS011;31078;48.304;11.896;2023-08-30T00:20:24;27.02;;;18.23;;
45344;SDS011;31078;48.304;11.896;2023-08-30T00:22:50;26.13;;;18.25;;
45344;SDS011;31078;48.304;11.896;2023-08-30T00:25:19;26.73;;;18.67;;
45344;SDS011;31078;48.304;11.896;2023-08-30T00:27:48;27.48;;;18.65;;
45344;SDS011;31078;48.304;11.896;2023-08-30T00:30:15;30.20;;;20.58;;
45344;SDS011;31078;48.304;11.896;2023-08-30T00:32:41;26.05;;;18.50;;
45344;SDS011;31078;48.304;11.896;2023-08-30T00:35:09;31.13;;;20.58;;
45344;SDS011;31078;48.304;11.896;2023-08-30T00:37:37;29.92;;;19.83;;
45344;SDS011;31078;48.304;11.896;2023-08-30T00:40:05;26.05;;;18.20;;
45344;SDS011;31078;48.304;11.896;2023-08-30T00:42:33;31.67;;;19.70;;
45344;SDS011;31078;48.304;11.896;2023-08-30T00:44:59;34.47;;;22.00;;
45344;SDS011;31078;48.304;11.896;2023-08-30T00:47:26;33.72;;;22.10;;
45344;SDS011;31078;48.304;11.896;2023-08-30T00:49:53;37.85;;;24.23;;
45344;SDS011;31078;48.304;11.896;2023-08-30T00:52:20;37.50;;;22.65;;
45344;SDS011;31078;48.304;11.896;2023-08-30T00:54:48;37.55;;;23.48;;
45344;SDS011;31078;48.304;11.896;2023-08-30T00:57:14;37.15;;;22.70;;
45344;SDS011;31078;48.304;11.896;2023-08-30T00:59:42;41.28;;;24.33;;
45344;SDS011;31078;48.304;11.896;2023-08-30T01:02:08;48.45;;;24.35;;
45344;SDS011;31078;48.304;11.896;2023-08-30T01:04:35;39.30;;;22.70;;
45344;SDS011;31078;48.304;11.896;2023-08-30T01:07:02;43.08;;;24.70;;
45344;SDS011;31078;48.304;11.896;2023-08-30T01:09:29;42.28;;;24.13;;
45344;SDS011;31078;48.304;11.896;2023-08-30T01:11:57;36.65;;;22.52;;
45344;SDS011;31078;48.304;11.896;2023-08-30T01:14:31;41.92;;;25.63;;
45344;SDS011;31078;48.304;11.896;2023-08-30T01:19:35;42.40;;;23.95;;
45344;SDS011;31078;48.304;11.896;2023-08-30T01:22:08;44.65;;;26.70;;
45344;SDS011;31078;48.304;11.896;2023-08-30T01:24:41;38.78;;;23.42;;
45344;SDS011;31078;48.304;11.896;2023-08-30T01:27:16;40.47;;;23.83;;
45344;SDS011;31078;48.304;11.896;2023-08-30T01:29:44;37.63;;;23.75;;
45344;SDS011;31078;48.304;11.896;2023-08-30T01:32:12;42.83;;;25.33;;
45344;SDS011;31078;48.304;11.896;2023-08-30T01:34:39;40.40;;;23.90;;
45344;SDS011;31078;48.304;11.896;2023-08-30T01:37:07;46.55;;;26.73;;
45344;SDS011;31078;48.304;11.896;2023-08-30T01:39:34;42.30;;;24.40;;
45344;SDS011;31078;48.304;11.896;2023-08-30T01:42:03;43.85;;;24.90;;
45344;SDS011;31078;48.304;11.896;2023-08-30T01:44:32;43.03;;;24.65;;
45344;SDS011;31078;48.304;11.896;2023-08-30T01:47:00;47.42;;;26.55;;
45344;SDS011;31078;48.304;11.896;2023-08-30T01:49:29;40.60;;;24.05;;
45344;SDS011;31078;48.304;11.896;2023-08-30T01:51:57;37.72;;;22.73;;
45344;SDS011;31078;48.304;11.896;2023-08-30T01:54:25;40.25;;;24.17;;
45344;SDS011;31078;48.304;11.896;2023-08-30T01:56:53;39.65;;;22.77;;
45344;SDS011;31078;48.304;11.896;2023-08-30T01:59:19;36.55;;;22.05;;
45344;SDS011;31078;48.304;11.896;2023-08-30T02:01:47;45.55;;;25.80;;
45344;SDS011;31078;48.304;11.896;2023-08-30T02:04:14;40.75;;;23.42;;
45344;SDS011;31078;48.304;11.896;2023-08-30T02:06:42;46.78;;;26.02;;
45344;SDS011;31078;48.304;11.896;2023-08-30T02:09:17;43.75;;;24.70;;
45344;SDS011;31078;48.304;11.896;2023-08-30T02:11:47;41.10;;;24.40;;
45344;SDS011;31078;48.304;11.896;2023-08-30T02:14:16;42.10;;;24.33;;
45344;SDS011;31078;48.304;11.896;2023-08-30T02:16:46;38.92;;;22.73;;
45344;SDS011;31078;48.304;11.896;2023-08-30T02:19:15;38.90;;;22.40;;
45344;SDS011;31078;48.304;11.896;2023-08-30T02:21:45;39.53;;;23.98;;
45344;SDS011;31078;48.304;11.896;2023-08-30T02:24:12;39.05;;;22.88;;
45344;SDS011;31078;48.304;11.896;2023-08-30T02:26:39;39.95;;;22.75;;
45344;SDS011;31078;48.304;11.896;2023-08-30T02:29:05;43.50;;;23.25;;
45344;SDS011;31078;48.304;11.896;2023-08-30T02:31:33;38.97;;;22.33;;
45344;SDS011;31078;48.304;11.896;2023-08-30T02:34:01;41.28;;;23.70;;
45344;SDS011;31078;48.304;11.896;2023-08-30T02:36:28;41.38;;;23.13;;
45344;SDS011;31078;48.304;11.896;2023-08-30T02:38:54;41.05;;;22.65;;
45344;SDS011;31078;48.304;11.896;2023-08-30T02:41:20;40.05;;;22.70;;
45344;SDS011;31078;48.304;11.896;2023-08-30T02:43:47;37.58;;;21.42;;
45344;SDS011;31078;48.304;11.896;2023-08-30T02:46:14;41.33;;;22.45;;
45344;SDS011;31078;48.304;11.896;2023-08-30T02:48:40;41.60;;;23.48;;
45344;SDS011;31078;48.304;11.896;2023-08-30T02:51:08;38.15;;;22.27;;
45344;SDS011;31078;48.304;11.896;2023-08-30T02:53:34;49.90;;;24.48;;
45344;SDS011;31078;48.304;11.896;2023-08-30T02:56:01;46.97;;;23.50;;
45344;SDS011;31078;48.304;11.896;2023-08-30T02:58:27;39.97;;;22.52;;
45344;SDS011;31078;48.304;11.896;2023-08-30T03:00:54;45.75;;;24.17;;
45344;SDS011;31078;48.304;11.896;2023-08-30T03:03:20;43.38;;;24.40;;
45344;SDS011;31078;48.304;11.896;2023-08-30T03:05:47;41.97;;;23.25;;
45344;SDS011;31078;48.304;11.896;2023-08-30T03:08:15;43.05;;;23.77;;
45344;SDS011;31078;48.304;11.896;2023-08-30T03:10:41;47.40;;;24.33;;
45344;SDS011;31078;48.304;11.896;2023-08-30T03:13:08;43.75;;;24.40;;
45344;SDS011;31078;48.304;11.896;2023-08-30T03:15:34;45.60;;;23.35;;
45344;SDS011;31078;48.304;11.896;2023-08-30T03:18:01;48.05;;;25.27;;
45344;SDS011;31078;48.304;11.896;2023-08-30T03:20:27;41.70;;;21.88;;
45344;SDS011;31078;48.304;11.896;2023-08-30T03:22:55;49.90;;;24.98;;
45344;SDS011;31078;48.304;11.896;2023-08-30T03:25:24;46.80;;;23.90;;
45344;SDS011;31078;48.304;11.896;2023-08-30T03:27:50;46.08;;;24.33;;
45344;SDS011;31078;48.304;11.896;2023-08-30T03:30:17;50.42;;;25.45;;
45344;SDS011;31078;48.304;11.896;2023-08-30T03:32:44;48.15;;;24.88;;
45344;SDS011;31078;48.304;11.896;2023-08-30T03:35:10;46.03;;;23.60;;
45344;SDS011;31078;48.304;11.896;2023-08-30T03:37:37;46.70;;;24.77;;
45344;SDS011;31078;48.304;11.896;2023-08-30T03:40:04;43.90;;;23.70;;
45344;SDS011;31078;48.304;11.896;2023-08-30T03:42:32;41.85;;;23.20;;
45344;SDS011;31078;48.304;11.896;2023-08-30T03:44:59;50.70;;;25.15;;
45344;SDS011;31078;48.304;11.896;2023-08-30T03:47:25;45.67;;;24.52;;
45344;SDS011;31078;48.304;11.896;2023-08-30T03:49:52;45.28;;;22.92;;
45344;SDS011;31078;48.304;11.896;2023-08-30T03:52:18;43.72;;;23.65;;
45344;SDS011;31078;48.304;11.896;2023-08-30T03:54:45;48.40;;;25.08;;
45344;SDS011;31078;48.304;11.896;2023-08-30T03:57:11;47.25;;;24.73;;
45344;SDS011;31078;48.304;11.896;2023-08-30T03:59:39;42.42;;;22.58;;
45344;SDS011;31078;48.304;11.896;2023-08-30T04:02:05;47.22;;;24.92;;
45344;SDS011;31078;48.304;11.896;2023-08-30T04:04:32;50.33;;;23.65;;
45344;SDS011;31078;48.304;11.896;2023-08-30T04:06:59;46.53;;;23.67;;
45344;SDS011;31078;48.304;11.896;2023-08-30T04:09:26;42.90;;;23.00;;
45344;SDS011;31078;48.304;11.896;2023-08-30T04:11:52;42.08;;;22.25;;
45344;SDS011;31078;48.304;11.896;2023-08-30T04:14:19;45.08;;;23.13;;
45344;SDS011;31078;48.304;11.896;2023-08-30T04:16:47;39.70;;;21.42;;
45344;SDS011;31078;48.304;11.896;2023-08-30T04:19:13;43.80;;;23.35;;
45344;SDS011;31078;48.304;11.896;2023-08-30T04:21:39;41.35;;;21.98;;
45344;SDS011;31078;48.304;11.896;2023-08-30T04:24:06;37.47;;;21.48;;
45344;SDS011;31078;48.304;11.896;2023-08-30T04:26:33;39.05;;;20.50;;
45344;SDS011;31078;48.304;11.896;2023-08-30T04:28:59;40.70;;;21.27;;
45344;SDS011;31078;48.304;11.896;2023-08-30T04:31:28;41.67;;;21.90;;
45344;SDS011;31078;48.304;11.896;2023-08-30T04:33:56;41.90;;;22.15;;
45344;SDS011;31078;48.304;11.896;2023-08-30T04:36:22;42.85;;;22.33;;
45344;SDS011;31078;48.304;11.896;2023-08-30T04:38:49;42.10;;;21.95;;
45344;SDS011;31078;48.304;11.896;2023-08-30T04:41:15;43.00;;;21.88;;
45344;SDS011;31078;48.304;11.896;2023-08-30T04:43:42;43.50;;;22.50;;
45344;SDS011;31078;48.304;11.896;2023-08-30T04:46:08;47.33;;;24.23;;
45344;SDS011;31078;48.304;11.896;2023-08-30T04:48:35;40.80;;;20.77;;
45344;SDS011;31078;48.304;11.896;2023-08-30T04:51:03;46.55;;;23.30;;
45344;SDS011;31078;48.304;11.896;2023-08-30T04:53:30;44.33;;;22.95;;
45344;SDS011;31078;48.304;11.896;2023-08-30T04:55:57;44.38;;;22.45;;
45344;SDS011;31078;48.304;11.896;2023-08-30T04:58:24;48.50;;;22.90;;
45344;SDS011;31078;48.304;11.896;2023-08-30T05:00:50;48.72;;;23.70;;
45344;SDS011;31078;48.304;11.896;2023-08-30T05:03:17;43.72;;;21.95;;
45344;SDS011;31078;48.304;11.896;2023-08-30T05:05:44;42.17;;;21.50;;
45344;SDS011;31078;48.304;11.896;2023-08-30T05:08:13;44.10;;;22.35;;
45344;SDS011;31078;48.304;11.896;2023-08-30T05:10:39;42.00;;;22.30;;
45344;SDS011;31078;48.304;11.896;2023-08-30T05:13:08;43.08;;;23.08;;
45344;SDS011;31078;48.304;11.896;2023-08-30T05:15:34;42.90;;;22.98;;
45344;SDS011;31078;48.304;11.896;2023-08-30T05:18:01;47.90;;;23.60;;
45344;SDS011;31078;48.304;11.896;2023-08-30T05:20:27;44.17;;;21.88;;
45344;SDS011;31078;48.304;11.896;2023-08-30T05:22:55;47.33;;;23.73;;
45344;SDS011;31078;48.304;11.896;2023-08-30T05:25:22;42.97;;;22.45;;
45344;SDS011;31078;48.304;11.896;2023-08-30T05:27:49;43.88;;;22.65;;
45344;SDS011;31078;48.304;11.896;2023-08-30T05:30:15;44.55;;;23.85;;
45344;SDS011;31078;48.304;11.896;2023-08-30T05:32:42;45.40;;;23.52;;
45344;SDS011;31078;48.304;11.896;2023-08-30T05:35:08;42.50;;;22.98;;
45344;SDS011;31078;48.304;11.896;2023-08-30T05:37:35;43.50;;;23.25;;
45344;SDS011;31078;48.304;11.896;2023-08-30T05:40:02;40.25;;;21.80;;
45344;SDS011;31078;48.304;11.896;2023-08-30T05:42:30;44.75;;;23.45;;
45344;SDS011;31078;48.304;11.896;2023-08-30T05:44:56;41.47;;;22.23;;
45344;SDS011;31078;48.304;11.896;2023-08-30T05:47:23;41.67;;;22.38;;
45344;SDS011;31078;48.304;11.896;2023-08-30T05:49:49;43.47;;;22.95;;
45344;SDS011;31078;48.304;11.896;2023-08-30T05:52:16;38.97;;;21.38;;
45344;SDS011;31078;48.304;11.896;2023-08-30T05:54:43;40.30;;;22.23;;
45344;SDS011;31078;48.304;11.896;2023-08-30T05:57:09;42.53;;;22.30;;
45344;SDS011;31078;48.304;11.896;2023-08-30T05:59:37;37.10;;;21.05;;
45344;SDS011;31078;48.304;11.896;2023-08-30T06:02:04;43.90;;;24.00;;
45344;SDS011;31078;48.304;11.896;2023-08-30T06:04:30;44.63;;;24.88;;
45344;SDS011;31078;48.304;11.896;2023-08-30T06:06:57;36.80;;;21.40;;
45344;SDS011;31078;48.304;11.896;2023-08-30T06:09:23;45.10;;;23.95;;
45344;SDS011;31078;48.304;11.896;2023-08-30T06:11:50;40.15;;;23.13;;
45344;SDS011;31078;48.304;11.896;2023-08-30T06:14:16;40.00;;;22.42;;
45344;SDS011;31078;48.304;11.896;2023-08-30T06:16:44;41.60;;;23.15;;
45344;SDS011;31078;48.304;11.896;2023-08-30T06:19:10;43.65;;;23.25;;
45344;SDS011;31078;48.304;11.896;2023-08-30T06:21:37;40.25;;;23.58;;
45344;SDS011;31078;48.304;11.896;2023-08-30T06:24:04;44.05;;;23.95;;
45344;SDS011;31078;48.304;11.896;2023-08-30T06:26:30;47.10;;;24.80;;
45344;SDS011;31078;48.304;11.896;2023-08-30T06:28:57;38.67;;;23.77;;
45344;SDS011;31078;48.304;11.896;2023-08-30T06:31:24;39.50;;;24.02;;
45344;SDS011;31078;48.304;11.896;2023-08-30T06:33:52;37.90;;;22.80;;
45344;SDS011;31078;48.304;11.896;2023-08-30T06:36:19;39.65;;;22.73;;
45344;SDS011;31078;48.304;11.896;2023-08-30T06:38:47;41.80;;;22.60;;
45344;SDS011;31078;48.304;11.896;2023-08-30T06:41:14;38.28;;;22.80;;
45344;SDS011;31078;48.304;11.896;2023-08-30T06:43:41;42.35;;;24.30;;
45344;SDS011;31078;48.304;11.896;2023-08-30T06:46:07;41.35;;;24.55;;
45344;SDS011;31078;48.304;11.896;2023-08-30T06:48:34;43.15;;;24.65;;
45344;SDS011;31078;48.304;11.896;2023-08-30T06:51:01;40.25;;;23.52;;
45344;SDS011;31078;48.304;11.896;2023-08-30T06:53:28;38.10;;;22.50;;
45344;SDS011;31078;48.304;11.896;2023-08-30T06:55:57;39.97;;;23.98;;
45344;SDS011;31078;48.304;11.896;2023-08-30T06:58:25;39.92;;;24.38;;
45344;SDS011;31078;48.304;11.896;2023-08-30T07:00:51;35.08;;;22.20;;
45344;SDS011;31078;48.304;11.896;2023-08-30T07:03:18;33.10;;;21.38;;
45344;SDS011;31078;48.304;11.896;2023-08-30T07:05:44;33.22;;;21.33;;
45344;SDS011;31078;48.304;11.896;2023-08-30T07:08:14;36.00;;;22.75;;
45344;SDS011;31078;48.304;11.896;2023-08-30T07:10:40;38.83;;;23.23;;
45344;SDS011;31078;48.304;11.896;2023-08-30T07:13:07;37.25;;;23.35;;
45344;SDS011;31078;48.304;11.896;2023-08-30T07:15:35;32.53;;;21.63;;
45344;SDS011;31078;48.304;11.896;2023-08-30T07:18:02;29.95;;;20.77;;
45344;SDS011;31078;48.304;11.896;2023-08-30T07:20:29;29.50;;;20.13;;
45344;SDS011;31078;48.304;11.896;2023-08-30T07:22:55;32.25;;;21.23;;
45344;SDS011;31078;48.304;11.896;2023-08-30T07:25:23;29.52;;;19.45;;
45344;SDS011;31078;48.304;11.896;2023-08-30T07:27:50;28.60;;;20.17;;
45344;SDS011;31078;48.304;11.896;2023-08-30T07:30:17;26.65;;;18.88;;
45344;SDS011;31078;48.304;11.896;2023-08-30T07:32:43;27.67;;;18.45;;
45344;SDS011;31078;48.304;11.896;2023-08-30T07:35:10;28.42;;;18.98;;
45344;SDS011;31078;48.304;11.896;2023-08-30T07:37:36;26.20;;;18.77;;
45344;SDS011;31078;48.304;11.896;2023-08-30T07:40:03;25.10;;;17.83;;
45344;SDS011;31078;48.304;11.896;2023-08-30T07:42:32;25.45;;;18.25;;
45344;SDS011;31078;48.304;11.896;2023-08-30T07:44:58;23.50;;;17.50;;
45344;SDS011;31078;48.304;11.896;2023-08-30T07:47:25;23.48;;;17.50;;
45344;SDS011;31078;48.304;11.896;2023-08-30T07:49:51;27.60;;;18.75;;
45344;SDS011;31078;48.304;11.896;2023-08-30T07:52:18;26.80;;;18.35;;
45344;SDS011;31078;48.304;11.896;2023-08-30T07:54:44;25.15;;;17.83;;
45344;SDS011;31078;48.304;11.896;2023-08-30T07:57:11;26.77;;;18.73;;
45344;SDS011;31078;48.304;11.896;2023-08-30T07:59:39;27.13;;;18.80;;
45344;SDS011;31078;48.304;11.896;2023-08-30T08:02:06;25.35;;;18.98;;
45344;SDS011;31078;48.304;11.896;2023-08-30T08:04:33;28.83;;;18.90;;
45344;SDS011;31078;48.304;11.896;2023-08-30T08:07:00;24.58;;;18.33;;
45344;SDS011;31078;48.304;11.896;2023-08-30T08:09:28;24.85;;;17.73;;
45344;SDS011;31078;48.304;11.896;2023-08-30T08:11:55;29.95;;;19.23;;
45344;SDS011;31078;48.304;11.896;2023-08-30T08:14:22;26.20;;;19.13;;
45344;SDS011;31078;48.304;11.896;2023-08-30T08:16:50;24.25;;;17.48;;
45344;SDS011;31078;48.304;11.896;2023-08-30T08:19:16;24.85;;;18.25;;
45344;SDS011;31078;48.304;11.896;2023-08-30T08:21:43;25.70;;;18.73;;
45344;SDS011;31078;48.304;11.896;2023-08-30T08:24:09;22.20;;;16.45;;
45344;SDS011;31078;48.304;11.896;2023-08-30T08:26:36;23.40;;;16.63;;
45344;SDS011;31078;48.304;11.896;2023-08-30T08:29:02;24.92;;;17.73;;
45344;SDS011;31078;48.304;11.896;2023-08-30T08:31:29;23.05;;;17.60;;
45344;SDS011;31078;48.304;11.896;2023-08-30T08:34:07;22.85;;;17.25;;
45344;SDS011;31078;48.304;11.896;2023-08-30T08:36:36;24.45;;;17.13;;
45344;SDS011;31078;48.304;11.896;2023-08-30T08:39:03;25.23;;;17.75;;
45344;SDS011;31078;48.304;11.896;2023-08-30T08:41:31;23.98;;;17.50;;
45344;SDS011;31078;48.304;11.896;2023-08-30T08:44:01;22.13;;;16.60;;
45344;SDS011;31078;48.304;11.896;2023-08-30T08:46:30;20.92;;;16.25;;
45344;SDS011;31078;48.304;11.896;2023-08-30T08:48:58;26.58;;;16.40;;
45344;SDS011;31078;48.304;11.896;2023-08-30T08:51:30;26.35;;;17.92;;
45344;SDS011;31078;48.304;11.896;2023-08-30T08:54:00;25.17;;;17.95;;
45344;SDS011;31078;48.304;11.896;2023-08-30T08:56:29;24.00;;;17.60;;
45344;SDS011;31078;48.304;11.896;2023-08-30T08:58:56;24.75;;;19.13;;
45344;SDS011;31078;48.304;11.896;2023-08-30T09:01:23;25.15;;;18.63;;
45344;SDS011;31078;48.304;11.896;2023-08-30T09:03:50;27.05;;;18.55;;
45344;SDS011;31078;48.304;11.896;2023-08-30T09:06:17;26.00;;;19.17;;
45344;SDS011;31078;48.304;11.896;2023-08-30T09:08:45;24.95;;;18.55;;
45344;SDS011;31078;48.304;11.896;2023-08-30T09:11:12;25.67;;;17.88;;
45344;SDS011;31078;48.304;11.896;2023-08-30T09:13:38;21.90;;;15.75;;
45344;SDS011;31078;48.304;11.896;2023-08-30T09:16:11;20.25;;;16.10;;
45344;SDS011;31078;48.304;11.896;2023-08-30T09:18:38;19.85;;;15.07;;
45344;SDS011;31078;48.304;11.896;2023-08-30T09:21:05;19.00;;;14.80;;
45344;SDS011;31078;48.304;11.896;2023-08-30T09:23:32;18.08;;;14.07;;
45344;SDS011;31078;48.304;11.896;2023-08-30T09:26:00;21.85;;;14.95;;
45344;SDS011;31078;48.304;11.896;2023-08-30T09:28:27;16.13;;;12.70;;
45344;SDS011;31078;48.304;11.896;2023-08-30T09:30:54;13.68;;;11.50;;
45344;SDS011;31078;48.304;11.896;2023-08-30T09:33:21;16.02;;;12.95;;
45344;SDS011;31078;48.304;11.896;2023-08-30T09:35:48;13.70;;;11.40;;
45344;SDS011;31078;48.304;11.896;2023-08-30T09:38:17;14.35;;;11.43;;
45344;SDS011;31078;48.304;11.896;2023-08-30T09:40:44;12.07;;;10.55;;
45344;SDS011;31078;48.304;11.896;2023-08-30T09:43:12;11.40;;;9.52;;
45344;SDS011;31078;48.304;11.896;2023-08-30T09:45:40;10.20;;;9.10;;
45344;SDS011;31078;48.304;11.896;2023-08-30T09:48:07;12.07;;;9.65;;
45344;SDS011;31078;48.304;11.896;2023-08-30T09:50:34;10.05;;;8.63;;
45344;SDS011;31078;48.304;11.896;2023-08-30T09:53:03;13.75;;;10.30;;
45344;SDS011;31078;48.304;11.896;2023-08-30T09:55:33;10.07;;;8.85;;
45344;SDS011;31078;48.304;11.896;2023-08-30T09:58:01;10.85;;;8.52;;
45344;SDS011;31078;48.304;11.896;2023-08-30T10:00:30;9.95;;;7.55;;
45344;SDS011;31078;48.304;11.896;2023-08-30T10:02:58;9.52;;;6.80;;
45344;SDS011;31078;48.304;11.896;2023-08-30T10:05:25;20.88;;;18.77;;
45344;SDS011;31078;48.304;11.896;2023-08-30T10:07:52;9.15;;;7.47;;
45344;SDS011;31078;48.304;11.896;2023-08-30T10:10:19;9.85;;;8.07;;
45344;SDS011;31078;48.304;11.896;2023-08-30T10:12:46;9.38;;;7.22;;
45344;SDS011;31078;48.304;11.896;2023-08-30T10:15:12;9.55;;;7.20;;
45344;SDS011;31078;48.304;11.896;2023-08-30T10:17:41;9.82;;;8.32;;
45344;SDS011;31078;48.304;11.896;2023-08-30T10:20:10;6.57;;;5.85;;
45344;SDS011;31078;48.304;11.896;2023-08-30T10:22:38;7.97;;;6.00;;
45344;SDS011;31078;48.304;11.896;2023-08-30T10:25:08;7.28;;;6.28;;
45344;SDS011;31078;48.304;11.896;2023-08-30T10:27:38;8.57;;;5.88;;
45344;SDS011;31078;48.304;11.896;2023-08-30T10:30:07;8.48;;;6.22;;
45344;SDS011;31078;48.304;11.896;2023-08-30T10:32:38;6.35;;;5.13;;
45344;SDS011;31078;48.304;11.896;2023-08-30T10:35:06;7.28;;;6.30;;
45344;SDS011;31078;48.304;11.896;2023-08-30T10:37:36;6.60;;;4.97;;
45344;SDS011;31078;48.304;11.896;2023-08-30T10:40:03;4.70;;;4.10;;
45344;SDS011;31078;48.304;11.896;2023-08-30T10:42:31;5.78;;;4.20;;
45344;SDS011;31078;48.304;11.896;2023-08-30T10:44:58;5.90;;;4.70;;
45344;SDS011;31078;48.304;11.896;2023-08-30T10:47:28;5.97;;;4.50;;
45344;SDS011;31078;48.304;11.896;2023-08-30T10:49:57;7.93;;;4.38;;
45344;SDS011;31078;48.304;11.896;2023-08-30T10:52:25;5.47;;;4.88;;
45344;SDS011;31078;48.304;11.896;2023-08-30T10:54:53;5.00;;;4.00;;
45344;SDS011;31078;48.304;11.896;2023-08-30T10:57:30;6.45;;;4.35;;
45344;SDS011;31078;48.304;11.896;2023-08-30T11:00:05;6.30;;;4.30;;
45344;SDS011;31078;48.304;11.896;2023-08-30T11:02:35;3.60;;;2.78;;
45344;SDS011;31078;48.304;11.896;2023-08-30T11:05:05;3.33;;;2.50;;
45344;SDS011;31078;48.304;11.896;2023-08-30T11:07:32;3.97;;;3.03;;
45344;SDS011;31078;48.304;11.896;2023-08-30T11:09:59;6.70;;;2.85;;
45344;SDS011;31078;48.304;11.896;2023-08-30T11:12:25;4.55;;;2.80;;
45344;SDS011;31078;48.304;11.896;2023-08-30T11:14:52;4.97;;;3.10;;
45344;SDS011;31078;48.304;11.896;2023-08-30T11:17:19;5.65;;;3.60;;
45344;SDS011;31078;48.304;11.896;2023-08-30T11:19:45;4.65;;;3.10;;
45344;SDS011;31078;48.304;11.896;2023-08-30T11:22:17;5.03;;;3.97;;
45344;SDS011;31078;48.304;11.896;2023-08-30T11:24:45;5.30;;;3.63;;
45344;SDS011;31078;48.304;11.896;2023-08-30T11:27:13;6.28;;;3.65;;
45344;SDS011;31078;48.304;11.896;2023-08-30T11:29:42;5.90;;;4.20;;
45344;SDS011;31078;48.304;11.896;2023-08-30T11:32:08;4.40;;;3.70;;
45344;SDS011;31078;48.304;11.896;2023-08-30T11:34:35;4.00;;;3.38;;
45344;SDS011;31078;48.304;11.896;2023-08-30T11:37:01;5.30;;;3.72;;
45344;SDS011;31078;48.304;11.896;2023-08-30T11:39:30;6.30;;;3.85;;
45344;SDS011;31078;48.304;11.896;2023-08-30T11:41:58;4.00;;;3.08;;
45344;SDS011;31078;48.304;11.896;2023-08-30T11:44:27;3.85;;;3.00;;
45344;SDS011;31078;48.304;11.896;2023-08-30T11:46:57;4.07;;;3.00;;
45344;SDS011;31078;48.304;11.896;2023-08-30T11:49:24;4.60;;;2.75;;
45344;SDS011;31078;48.304;11.896;2023-08-30T11:51:50;4.95;;;3.15;;
45344;SDS011;31078;48.304;11.896;2023-08-30T11:54:18;4.18;;;3.45;;
45344;SDS011;31078;48.304;11.896;2023-08-30T11:56:46;3.33;;;3.00;;
45344;SDS011;31078;48.304;11.896;2023-08-30T11:59:17;5.60;;;3.17;;
45344;SDS011;31078;48.304;11.896;2023-08-30T12:01:44;5.00;;;3.33;;
45344;SDS011;31078;48.304;11.896;2023-08-30T12:04:11;5.22;;;3.42;;
45344;SDS011;31078;48.304;11.896;2023-08-30T12:06:38;5.88;;;3.38;;
45344;SDS011;31078;48.304;11.896;2023-08-30T12:09:05;5.15;;;2.55;;
45344;SDS011;31078;48.304;11.896;2023-08-30T12:11:38;4.65;;;2.95;;
45344;SDS011;31078;48.304;11.896;2023-08-30T12:14:06;4.20;;;2.97;;
45344;SDS011;31078;48.304;11.896;2023-08-30T12:16:32;6.43;;;2.92;;
45344;SDS011;31078;48.304;11.896;2023-08-30T12:19:07;4.40;;;3.28;;
45344;SDS011;31078;48.304;11.896;2023-08-30T12:21:38;5.00;;;3.20;;
45344;SDS011;31078;48.304;11.896;2023-08-30T12:24:06;4.38;;;3.03;;
45344;SDS011;31078;48.304;11.896;2023-08-30T12:26:33;4.20;;;3.28;;
45344;SDS011;31078;48.304;11.896;2023-08-30T12:28:59;3.88;;;3.20;;
45344;SDS011;31078;48.304;11.896;2023-08-30T12:31:27;5.32;;;2.80;;
45344;SDS011;31078;48.304;11.896;2023-08-30T12:33:53;4.70;;;3.33;;
45344;SDS011;31078;48.304;11.896;2023-08-30T12:36:20;5.25;;;3.83;;
45344;SDS011;31078;48.304;11.896;2023-08-30T12:38:47;5.50;;;3.70;;
45344;SDS011;31078;48.304;11.896;2023-08-30T12:41:13;4.45;;;3.55;;
45344;SDS011;31078;48.304;11.896;2023-08-30T12:43:40;5.15;;;4.10;;
45344;SDS011;31078;48.304;11.896;2023-08-30T12:46:06;5.90;;;3.92;;
45344;SDS011;31078;48.304;11.896;2023-08-30T12:48:34;5.18;;;4.68;;
45344;SDS011;31078;48.304;11.896;2023-08-30T12:51:00;5.35;;;4.85;;
45344;SDS011;31078;48.304;11.896;2023-08-30T12:53:28;5.38;;;4.40;;
45344;SDS011;31078;48.304;11.896;2023-08-30T12:55:55;6.50;;;3.58;;
45344;SDS011;31078;48.304;11.896;2023-08-30T12:58:21;4.97;;;3.85;;
45344;SDS011;31078;48.304;11.896;2023-08-30T13:00:48;5.75;;;4.30;;
45344;SDS011;31078;48.304;11.896;2023-08-30T13:03:15;5.63;;;4.00;;
45344;SDS011;31078;48.304;11.896;2023-08-30T13:05:43;4.35;;;3.47;;
45344;SDS011;31078;48.304;11.896;2023-08-30T13:08:09;5.32;;;3.30;;
45344;SDS011;31078;48.304;11.896;2023-08-30T13:10:36;8.15;;;3.75;;
45344;SDS011;31078;48.304;11.896;2023-08-30T13:13:03;4.85;;;3.50;;
45344;SDS011;31078;48.304;11.896;2023-08-30T13:15:29;4.13;;;3.28;;
45344;SDS011;31078;48.304;11.896;2023-08-30T13:17:56;6.28;;;3.92;;
45344;SDS011;31078;48.304;11.896;2023-08-30T13:20:22;5.30;;;3.13;;
45344;SDS011;31078;48.304;11.896;2023-08-30T13:22:50;3.92;;;2.92;;
45344;SDS011;31078;48.304;11.896;2023-08-30T13:25:16;4.85;;;3.25;;
45344;SDS011;31078;48.304;11.896;2023-08-30T13:27:43;5.75;;;3.70;;
45344;SDS011;31078;48.304;11.896;2023-08-30T13:30:10;3.15;;;1.88;;
45344;SDS011;31078;48.304;11.896;2023-08-30T13:32:37;2.92;;;2.20;;
45344;SDS011;31078;48.304;11.896;2023-08-30T13:35:03;6.30;;;2.65;;
45344;SDS011;31078;48.304;11.896;2023-08-30T13:37:30;3.10;;;2.78;;
45344;SDS011;31078;48.304;11.896;2023-08-30T13:39:58;3.38;;;2.55;;
45344;SDS011;31078;48.304;11.896;2023-08-30T13:42:25;2.95;;;2.17;;
45344;SDS011;31078;48.304;11.896;2023-08-30T13:44:52;2.70;;;2.17;;
45344;SDS011;31078;48.304;11.896;2023-08-30T13:47:19;3.50;;;2.75;;
45344;SDS011;31078;48.304;11.896;2023-08-30T13:49:45;3.05;;;2.30;;
45344;SDS011;31078;48.304;11.896;2023-08-30T13:52:12;3.67;;;2.38;;
45344;SDS011;31078;48.304;11.896;2023-08-30T13:54:38;3.30;;;2.30;;
45344;SDS011;31078;48.304;11.896;2023-08-30T13:57:06;4.00;;;2.42;;
45344;SDS011;31078;48.304;11.896;2023-08-30T13:59:32;4.25;;;2.17;;
45344;SDS011;31078;48.304;11.896;2023-08-30T14:02:00;6.25;;;2.45;;
45344;SDS011;31078;48.304;11.896;2023-08-30T14:04:29;2.60;;;2.10;;
45344;SDS011;31078;48.304;11.896;2023-08-30T14:06:57;4.57;;;2.42;;
45344;SDS011;31078;48.304;11.896;2023-08-30T14:09:23;2.75;;;2.38;;
45344;SDS011;31078;48.304;11.896;2023-08-30T14:11:50;6.28;;;3.58;;
45344;SDS011;31078;48.304;11.896;2023-08-30T14:14:18;3.30;;;3.00;;
45344;SDS011;31078;48.304;11.896;2023-08-30T14:16:44;3.95;;;3.45;;
45344;SDS011;31078;48.304;11.896;2023-08-30T14:19:11;4.38;;;3.75;;